Rhodes, Greece

11:23 AM EEST on August 30, 2014 (GMT +0300)
Diagoras | Change Station
CLOSE
Current Station
Airport
Location: Rhodes,
Elevation: 36 ft
Nearby Weather Stations

Elev 36 ft 36.41 °N, 28.09 °E | Updated 33 minutes ago

Clear
Clear
86 °F
Feels Like 92 °F
N
8
Wind Variable Wind from West

Today
High -- | Low -- °F
--% Chance of Precip.
Yesterday
High -- | Low -- °F
Precip. -- in
6:37 AM 7:38 PM
Waxing Crescent, 20% visible
Pressure 29.80 in
Visibility -9999.0 miles
Clouds
Heat Index 92 °F
Dew Point 72 °F
Humidity 62%
Rainfall 0.00 in
Snow Depth Not available.
UV Not available.
Pollen Not available.
Air Quality Not available.
Flu Activity Not available.
METAR LGRP 300750Z 27007KT CAVOK 30/22 Q1009 NOSIG

More Conditions Fewer Conditions

Pressure 29.80 in
Visibility -9999.0 miles
Clouds
Heat Index 92 °F
Dew Point 72 °F
Humidity 62%
Rainfall 0.00 in
Snow Depth Not available.
UV Not available.
Pollen Not available.
Air Quality Not available.
Flu Activity Not available.
METAR LGRP 300750Z 27007KT CAVOK 30/22 Q1009 NOSIG

More Conditions Fewer Conditions

10-Day Weather Forecast

Almanac

Astronomy

Aug. 30, 2014 Rise Set
Actual Time 6:37 AM EEST 7:38 PM EEST
Civil Twilight 6:10 AM EEST 8:05 PM EEST
Nautical Twilight 5:39 AM EEST 8:36 PM EEST
Astronomical Twilight 5:06 AM EEST 9:09 PM EEST
Moon 10:57 AM EEST 10:09 PM EEST
Length of Visible Light 13h 54m
Length of Day
13h 01m
Tomorrow will be 2m 13s shorter.
Waxing Crescent, 20% of the Moon is Illuminated
Today
Waxing Crescent
Sep 2
First Quarter
Sep 8
Full
Sep 15
Last Quarter
Sep 24
New

Yesterday's Extremes

Country Highs Country Lows

Community

WunderPhotos

Upload Photos

1,748,472 photos uploaded!

Nearby

Snow Depth

Not available.

Earthquake Activity

City Distance Mag. Time & Date
No recent earthquake activity has been reported nearby.
Minimum magnitude displayed is 2.5.

Coastal Water Temperatures

Place Temperature
No Stations Reporting

Nearby Weather Stations